createdAt,value
2023-06-27T00:00:26.644Z,2.33
2023-06-27T00:02:57.261Z,2.15
2023-06-27T00:05:25.441Z,2.28
2023-06-27T00:07:53.408Z,2.30
2023-06-27T00:10:24.003Z,2.75
2023-06-27T00:12:54.682Z,2.47
2023-06-27T00:15:22.654Z,2.30
2023-06-27T00:17:53.183Z,2.85
2023-06-27T00:20:22.798Z,2.20
2023-06-27T00:22:50.773Z,2.30
2023-06-27T00:25:20.423Z,2.42
2023-06-27T00:27:53.023Z,2.63
2023-06-27T00:30:23.897Z,2.63
2023-06-27T00:32:52.006Z,2.45
2023-06-27T00:35:19.980Z,2.17
2023-06-27T00:37:49.252Z,2.53
2023-06-27T00:40:17.536Z,2.63
2023-06-27T00:42:48.179Z,2.47
2023-06-27T00:45:16.179Z,2.50
2023-06-27T00:47:44.260Z,2.20
2023-06-27T00:50:12.403Z,2.33
2023-06-27T00:52:42.079Z,2.67
2023-06-27T00:55:12.143Z,2.55
2023-06-27T00:57:40.859Z,2.15
2023-06-27T01:00:13.268Z,2.28
2023-06-27T01:02:41.518Z,2.30
2023-06-27T01:05:10.071Z,2.35
2023-06-27T01:07:43.792Z,2.50
2023-06-27T01:10:18.024Z,2.38
2023-06-27T01:12:50.870Z,1.92
2023-06-27T01:15:19.318Z,2.13
2023-06-27T01:17:47.942Z,2.25
2023-06-27T01:20:16.579Z,2.05
2023-06-27T01:22:49.737Z,2.38
2023-06-27T01:25:19.340Z,2.47
2023-06-27T01:27:47.395Z,1.90
2023-06-27T01:30:18.872Z,2.30
2023-06-27T01:32:51.726Z,2.20
2023-06-27T01:35:28.488Z,2.58
2023-06-27T01:38:01.244Z,2.17
2023-06-27T01:40:34.182Z,2.03
2023-06-27T01:43:10.127Z,1.92
2023-06-27T01:45:41.279Z,2.20
2023-06-27T01:48:10.250Z,1.92
2023-06-27T01:50:38.369Z,2.10
2023-06-27T01:53:06.501Z,2.00
2023-06-27T01:55:35.904Z,2.03
2023-06-27T01:58:04.054Z,2.20
2023-06-27T02:00:32.058Z,1.77
2023-06-27T02:03:00.127Z,2.35
2023-06-27T02:05:28.173Z,2.42
2023-06-27T02:07:56.213Z,2.67
2023-06-27T02:10:24.599Z,1.85
2023-06-27T02:12:54.103Z,2.00
2023-06-27T02:15:22.106Z,2.35
2023-06-27T02:17:52.652Z,2.20
2023-06-27T02:20:20.655Z,2.35
2023-06-27T02:22:48.711Z,2.03
2023-06-27T02:25:16.866Z,2.05
2023-06-27T02:27:44.869Z,2.33
2023-06-27T02:30:14.720Z,1.90
2023-06-27T02:32:42.844Z,2.22
2023-06-27T02:35:11.289Z,2.22
2023-06-27T02:37:39.251Z,2.00
2023-06-27T02:40:08.450Z,1.98
2023-06-27T02:42:36.418Z,1.90
2023-06-27T02:45:04.782Z,2.10
2023-06-27T02:47:34.777Z,1.85
2023-06-27T02:50:03.792Z,2.00
2023-06-27T02:52:31.802Z,2.38
2023-06-27T02:54:59.795Z,2.00
2023-06-27T02:57:27.860Z,2.20
2023-06-27T02:59:55.878Z,2.22
2023-06-27T03:02:23.950Z,2.00
2023-06-27T03:04:53.930Z,1.92
2023-06-27T03:07:21.919Z,1.98
2023-06-27T03:09:49.888Z,2.30
2023-06-27T03:12:17.929Z,2.08
2023-06-27T03:14:53.685Z,1.90
2023-06-27T03:17:27.220Z,1.95
2023-06-27T03:19:56.651Z,2.00
2023-06-27T03:22:24.683Z,2.10
2023-06-27T03:24:52.704Z,1.63
2023-06-27T03:27:23.512Z,1.70
2023-06-27T03:29:51.632Z,1.83
2023-06-27T03:32:19.603Z,2.30
2023-06-27T03:34:48.368Z,2.00
2023-06-27T03:37:18.575Z,2.25
2023-06-27T03:39:46.694Z,1.92
2023-06-27T03:42:16.324Z,2.03
2023-06-27T03:44:44.292Z,1.98
2023-06-27T03:47:12.536Z,2.08
2023-06-27T03:49:43.508Z,2.17
2023-06-27T03:52:11.627Z,2.70
2023-06-27T03:54:41.001Z,1.80
2023-06-27T03:57:09.196Z,1.92
2023-06-27T03:59:37.152Z,1.83
2023-06-27T04:02:05.172Z,1.95
2023-06-27T04:04:35.493Z,2.08
2023-06-27T04:07:03.718Z,2.10
2023-06-27T04:09:31.670Z,2.00
2023-06-27T04:12:01.009Z,1.80
2023-06-27T04:14:29.223Z,2.20
2023-06-27T04:16:57.309Z,2.20
2023-06-27T04:19:25.347Z,1.92
2023-06-27T04:21:53.392Z,2.00
2023-06-27T04:24:21.388Z,2.03
2023-06-27T04:26:49.330Z,1.90
2023-06-27T04:29:18.691Z,1.90
2023-06-27T04:31:46.718Z,1.90
2023-06-27T04:34:14.831Z,2.00
2023-06-27T04:36:43.015Z,2.00
2023-06-27T04:39:14.257Z,2.05
2023-06-27T04:41:42.262Z,2.00
2023-06-27T04:44:10.208Z,1.65
2023-06-27T04:46:42.680Z,1.88
2023-06-27T04:49:10.668Z,2.05
2023-06-27T04:51:42.433Z,1.92
2023-06-27T04:54:10.451Z,1.85
2023-06-27T04:56:38.482Z,2.25
2023-06-27T04:59:06.434Z,2.13
2023-06-27T05:01:34.500Z,2.17
2023-06-27T05:04:06.397Z,1.98
2023-06-27T05:06:34.934Z,2.20
2023-06-27T05:09:04.741Z,1.85
2023-06-27T05:11:32.726Z,2.10
2023-06-27T05:14:00.717Z,1.92
2023-06-27T05:16:28.701Z,2.00
2023-06-27T05:18:56.702Z,2.22
2023-06-27T05:21:26.060Z,2.22
2023-06-27T05:23:54.050Z,1.88
2023-06-27T05:26:21.988Z,1.80
2023-06-27T05:28:49.951Z,1.83
2023-06-27T05:31:18.115Z,2.10
2023-06-27T05:33:47.053Z,2.30
2023-06-27T05:36:15.019Z,2.20
2023-06-27T05:38:44.409Z,1.95
2023-06-27T05:41:14.715Z,2.30
2023-06-27T05:43:42.620Z,2.20
2023-06-27T05:46:13.581Z,2.20
2023-06-27T05:48:41.813Z,2.00
2023-06-27T05:51:10.742Z,2.33
2023-06-27T05:53:38.683Z,2.17
2023-06-27T05:56:08.471Z,2.33
2023-06-27T05:58:37.208Z,3.10
2023-06-27T06:01:05.411Z,3.17
2023-06-27T06:03:34.968Z,3.80
2023-06-27T06:06:06.151Z,3.33
2023-06-27T06:08:36.328Z,3.30
2023-06-27T06:11:04.352Z,3.75
2023-06-27T06:13:33.701Z,3.63
2023-06-27T06:16:01.705Z,3.47
2023-06-27T06:18:29.785Z,3.63
2023-06-27T06:20:57.712Z,3.45
2023-06-27T06:23:25.746Z,3.80
2023-06-27T06:25:53.871Z,3.55
2023-06-27T06:28:21.907Z,3.40
2023-06-27T06:30:51.415Z,4.13
2023-06-27T06:33:19.432Z,3.83
2023-06-27T06:35:47.407Z,3.20
2023-06-27T06:38:15.408Z,3.42
2023-06-27T06:40:44.935Z,3.15
2023-06-27T06:43:12.934Z,3.45
2023-06-27T06:45:41.204Z,3.17
2023-06-27T06:48:10.718Z,2.95
2023-06-27T06:50:39.150Z,3.55
2023-06-27T06:53:07.446Z,3.22
2023-06-27T06:55:35.397Z,3.45
2023-06-27T06:58:03.406Z,3.63
2023-06-27T07:00:31.382Z,3.22
2023-06-27T07:02:59.882Z,2.88
2023-06-27T07:05:29.312Z,3.20
2023-06-27T07:07:57.960Z,3.40
2023-06-27T07:10:25.904Z,3.50
2023-06-27T07:12:55.661Z,2.92
2023-06-27T07:15:25.034Z,3.05
2023-06-27T07:17:56.052Z,2.75
2023-06-27T07:20:24.468Z,3.20
2023-06-27T07:22:54.656Z,2.65
2023-06-27T07:25:22.858Z,2.45
2023-06-27T07:27:53.944Z,2.70
2023-06-27T07:30:24.894Z,2.60
2023-06-27T07:32:53.040Z,2.50
2023-06-27T07:35:21.092Z,2.50
2023-06-27T07:37:49.104Z,2.70
2023-06-27T07:40:18.570Z,3.95
2023-06-27T07:42:46.549Z,2.05
2023-06-27T07:45:14.572Z,1.73
2023-06-27T07:47:42.623Z,2.13
2023-06-27T07:50:11.472Z,1.80
2023-06-27T07:52:40.938Z,2.08
2023-06-27T07:55:11.379Z,2.00
2023-06-27T07:57:40.765Z,1.75
2023-06-27T08:00:10.330Z,2.10
2023-06-27T08:02:38.437Z,2.03
2023-06-27T08:05:08.025Z,1.85
2023-06-27T08:07:37.127Z,2.00
2023-06-27T08:10:05.748Z,1.88
2023-06-27T08:12:33.775Z,1.50
2023-06-27T08:15:03.206Z,2.00
2023-06-27T08:17:31.646Z,2.00
2023-06-27T08:19:59.645Z,1.90
2023-06-27T08:22:28.221Z,1.58
2023-06-27T08:24:56.209Z,1.88
2023-06-27T08:27:25.130Z,1.77
2023-06-27T08:29:53.105Z,1.60
2023-06-27T08:32:22.474Z,1.63
2023-06-27T08:37:22.542Z,2.03
2023-06-27T08:39:54.050Z,1.67
2023-06-27T08:42:22.073Z,1.60
2023-06-27T08:44:50.019Z,1.60
2023-06-27T08:47:21.938Z,1.63
2023-06-27T08:49:53.374Z,2.00
2023-06-27T08:52:23.116Z,1.42
2023-06-27T08:54:55.288Z,1.63
2023-06-27T08:57:26.036Z,1.67
2023-06-27T08:59:57.812Z,1.55
2023-06-27T09:02:27.969Z,1.73
2023-06-27T09:04:57.623Z,1.67
2023-06-27T09:07:26.600Z,1.60
2023-06-27T09:09:55.732Z,1.90
2023-06-27T09:12:25.086Z,1.30
2023-06-27T09:14:53.050Z,1.77
2023-06-27T09:17:21.670Z,1.80
2023-06-27T09:19:49.659Z,1.88
2023-06-27T09:22:24.547Z,1.50
2023-06-27T09:24:52.537Z,1.67
2023-06-27T09:27:31.063Z,1.90
2023-06-27T09:30:03.673Z,1.30
2023-06-27T09:32:31.758Z,1.60
2023-06-27T09:35:02.505Z,1.58
2023-06-27T09:40:19.298Z,1.10
2023-06-27T09:42:53.407Z,1.50
2023-06-27T09:45:25.001Z,1.45
2023-06-27T09:50:26.694Z,1.25
2023-06-27T09:52:57.793Z,1.52
2023-06-27T09:55:26.196Z,1.80
2023-06-27T09:57:55.321Z,1.45
2023-06-27T10:00:24.089Z,1.23
2023-06-27T10:02:53.203Z,2.05
2023-06-27T10:05:22.342Z,1.20
2023-06-27T10:07:55.886Z,1.45
2023-06-27T10:10:27.556Z,1.95
2023-06-27T10:12:56.303Z,1.40
2023-06-27T10:15:24.471Z,1.60
2023-06-27T10:17:52.604Z,1.70
2023-06-27T10:20:20.952Z,1.40
2023-06-27T10:22:51.162Z,1.33
2023-06-27T10:25:23.146Z,1.40
2023-06-27T10:27:51.389Z,1.20
2023-06-27T10:30:27.341Z,1.33
2023-06-27T10:33:12.038Z,1.30
2023-06-27T10:35:52.011Z,1.20
2023-06-27T10:38:20.884Z,1.40
2023-06-27T10:41:25.138Z,1.00
2023-06-27T10:43:54.796Z,1.40
2023-06-27T10:46:24.328Z,1.58
2023-06-27T10:51:26.097Z,1.33
2023-06-27T10:54:13.718Z,1.38
2023-06-27T10:56:44.403Z,1.50
2023-06-27T10:59:13.916Z,1.20
2023-06-27T11:01:46.066Z,1.33
2023-06-27T11:04:22.855Z,1.27
2023-06-27T11:06:52.606Z,1.23
2023-06-27T11:09:20.765Z,1.23
2023-06-27T11:11:56.729Z,1.40
2023-06-27T11:14:39.766Z,1.20
2023-06-27T11:17:08.054Z,1.58
2023-06-27T11:19:38.136Z,1.58
2023-06-27T11:22:10.017Z,1.05
2023-06-27T11:24:38.643Z,1.20
2023-06-27T11:27:09.306Z,1.33
2023-06-27T11:29:42.921Z,1.20
2023-06-27T11:32:11.924Z,1.10
2023-06-27T11:34:42.703Z,1.25
2023-06-27T11:37:12.968Z,0.90
2023-06-27T11:39:41.056Z,1.20
2023-06-27T11:42:10.706Z,1.25
2023-06-27T11:44:38.682Z,1.27
2023-06-27T11:47:07.818Z,1.02
2023-06-27T11:49:36.444Z,1.67
2023-06-27T11:52:04.999Z,1.02
2023-06-27T11:54:33.007Z,1.23
2023-06-27T11:57:03.118Z,1.02
2023-06-27T11:59:33.670Z,1.02
2023-06-27T12:02:03.145Z,1.13
2023-06-27T12:04:31.216Z,0.82
2023-06-27T12:07:18.704Z,0.80
2023-06-27T12:10:05.529Z,0.95
2023-06-27T12:12:38.503Z,1.10
2023-06-27T12:15:15.860Z,1.30
2023-06-27T12:18:00.442Z,1.20
2023-06-27T12:20:43.002Z,1.15
2023-06-27T12:23:11.545Z,1.50
2023-06-27T12:25:42.191Z,1.00
2023-06-27T12:28:10.173Z,1.30
2023-06-27T12:30:42.558Z,1.20
2023-06-27T12:33:13.626Z,1.20
2023-06-27T12:35:41.911Z,1.40
2023-06-27T12:38:09.901Z,1.25
2023-06-27T12:40:38.017Z,1.25
2023-06-27T12:43:07.493Z,0.93
2023-06-27T12:45:41.527Z,1.20
2023-06-27T12:48:13.419Z,1.30
2023-06-27T12:50:41.715Z,1.25
2023-06-27T12:53:09.979Z,1.55
2023-06-27T12:55:41.025Z,1.48
2023-06-27T12:58:09.102Z,1.10
2023-06-27T13:00:39.280Z,1.10
2023-06-27T13:03:17.605Z,1.40
2023-06-27T13:05:48.464Z,1.10
2023-06-27T13:08:20.249Z,1.27
2023-06-27T13:10:49.222Z,1.50
2023-06-27T13:13:17.287Z,1.20
2023-06-27T13:15:48.785Z,1.02
2023-06-27T13:18:21.938Z,1.00
2023-06-27T13:20:52.367Z,1.23
2023-06-27T13:23:23.111Z,1.20
2023-06-27T13:25:52.238Z,1.20
2023-06-27T13:28:20.223Z,0.95
2023-06-27T13:30:48.254Z,1.20
2023-06-27T13:33:16.585Z,1.30
2023-06-27T13:35:44.497Z,1.02
2023-06-27T13:38:14.916Z,1.75
2023-06-27T13:40:43.217Z,1.10
2023-06-27T13:43:13.068Z,1.20
2023-06-27T13:45:47.944Z,1.10
2023-06-27T13:48:16.448Z,1.23
2023-06-27T13:50:44.610Z,1.15
2023-06-27T13:53:14.352Z,1.23
2023-06-27T13:55:45.036Z,1.25
2023-06-27T13:58:13.122Z,1.13
2023-06-27T14:00:41.864Z,0.98
2023-06-27T14:03:10.296Z,1.13
2023-06-27T14:05:38.413Z,1.00
2023-06-27T14:08:08.714Z,1.27
2023-06-27T14:10:38.320Z,0.88
2023-06-27T14:13:08.636Z,1.10
2023-06-27T14:15:38.855Z,1.23
2023-06-27T14:18:07.652Z,1.00
2023-06-27T14:20:35.742Z,1.00
2023-06-27T14:23:05.624Z,0.90
2023-06-27T14:25:34.108Z,1.20
2023-06-27T14:28:04.646Z,1.13
2023-06-27T14:30:33.321Z,1.10
2023-06-27T14:33:01.368Z,1.38
2023-06-27T14:35:29.454Z,1.58
2023-06-27T14:37:57.418Z,1.35
2023-06-27T14:40:25.585Z,1.10
2023-06-27T14:42:56.227Z,1.35
2023-06-27T14:45:25.600Z,1.30
2023-06-27T14:47:55.508Z,1.33
2023-06-27T14:50:23.831Z,1.10
2023-06-27T14:52:51.916Z,1.45
2023-06-27T14:55:22.161Z,1.35
2023-06-27T14:57:50.137Z,1.45
2023-06-27T15:00:20.607Z,1.30
2023-06-27T15:02:50.558Z,1.10
2023-06-27T15:05:23.413Z,1.40
2023-06-27T15:08:11.373Z,1.13
2023-06-27T15:10:46.470Z,1.40
2023-06-27T15:13:18.972Z,1.15
2023-06-27T15:16:07.049Z,0.75
2023-06-27T15:21:12.410Z,1.40
2023-06-27T15:23:44.490Z,1.30
2023-06-27T15:26:12.582Z,0.98
2023-06-27T15:28:40.626Z,1.50
2023-06-27T15:31:14.424Z,1.40
2023-06-27T15:33:47.895Z,1.10
2023-06-27T15:36:19.879Z,1.30
2023-06-27T15:38:48.364Z,1.27
2023-06-27T15:41:16.323Z,1.45
2023-06-27T15:43:45.039Z,1.65
2023-06-27T15:46:13.076Z,1.13
2023-06-27T15:48:41.103Z,1.20
2023-06-27T15:51:11.887Z,1.25
2023-06-27T15:53:39.987Z,1.40
2023-06-27T15:56:11.472Z,1.60
2023-06-27T15:58:39.514Z,1.50
2023-06-27T16:01:08.607Z,1.77
2023-06-27T16:03:36.766Z,1.20
2023-06-27T16:06:04.974Z,1.25
2023-06-27T16:08:34.444Z,1.40
2023-06-27T16:11:02.434Z,1.63
2023-06-27T16:13:30.389Z,1.60
2023-06-27T16:15:58.730Z,1.70
2023-06-27T16:18:26.768Z,1.42
2023-06-27T16:20:54.804Z,1.42
2023-06-27T16:23:23.021Z,1.65
2023-06-27T16:25:55.427Z,1.55
2023-06-27T16:28:23.517Z,1.35
2023-06-27T16:30:51.507Z,1.33
2023-06-27T16:33:19.509Z,2.15
2023-06-27T16:35:47.504Z,1.40
2023-06-27T16:38:15.439Z,1.38
2023-06-27T16:40:43.690Z,1.38
2023-06-27T16:43:13.620Z,1.58
2023-06-27T16:45:41.752Z,1.63
2023-06-27T16:48:10.029Z,1.75
2023-06-27T16:50:39.113Z,1.60
2023-06-27T16:53:09.410Z,1.45
2023-06-27T16:55:37.525Z,1.30
2023-06-27T16:58:05.559Z,1.25
2023-06-27T17:00:34.979Z,1.52
2023-06-27T17:03:04.424Z,1.50
2023-06-27T17:05:32.576Z,1.75
2023-06-27T17:08:00.529Z,1.40
2023-06-27T17:10:28.664Z,1.92
2023-06-27T17:12:56.646Z,1.40
2023-06-27T17:15:24.699Z,1.40
2023-06-27T17:17:55.926Z,1.20
2023-06-27T17:20:24.875Z,1.30
2023-06-27T17:22:52.874Z,1.15
2023-06-27T17:25:21.021Z,1.55
2023-06-27T17:27:49.005Z,1.38
2023-06-27T17:30:17.053Z,1.40
2023-06-27T17:32:47.686Z,1.63
2023-06-27T17:35:17.135Z,1.15
2023-06-27T17:37:46.680Z,1.33
2023-06-27T17:40:15.310Z,1.50
2023-06-27T17:42:45.915Z,1.75
2023-06-27T17:45:14.138Z,1.50
2023-06-27T17:47:42.323Z,1.23
2023-06-27T17:50:12.930Z,1.20
2023-06-27T17:52:43.243Z,0.98
2023-06-27T17:55:11.937Z,1.30
2023-06-27T17:57:40.076Z,1.05
2023-06-27T18:00:09.403Z,1.33
2023-06-27T18:02:39.336Z,1.00
2023-06-27T18:05:07.903Z,1.60
2023-06-27T18:07:38.807Z,1.30
2023-06-27T18:10:13.258Z,1.30
2023-06-27T18:12:41.317Z,1.25
2023-06-27T18:15:10.340Z,1.38
2023-06-27T18:17:38.362Z,2.22
2023-06-27T18:20:10.560Z,1.10
2023-06-27T18:22:38.590Z,1.27
2023-06-27T18:25:09.130Z,1.35
2023-06-27T18:27:38.038Z,1.20
2023-06-27T18:30:07.488Z,1.40
2023-06-27T18:32:35.579Z,1.88
2023-06-27T18:35:03.650Z,1.02
2023-06-27T18:37:31.639Z,1.67
2023-06-27T18:39:59.744Z,1.35
2023-06-27T18:42:29.106Z,1.55
2023-06-27T18:44:57.304Z,1.50
2023-06-27T18:47:25.293Z,1.50
2023-06-27T18:49:53.516Z,1.60
2023-06-27T18:52:21.627Z,1.20
2023-06-27T18:54:49.618Z,1.40
2023-06-27T18:57:19.955Z,1.45
2023-06-27T18:59:49.317Z,1.83
2023-06-27T19:02:17.390Z,1.50
2023-06-27T19:04:45.548Z,1.33
2023-06-27T19:07:13.704Z,1.70
2023-06-27T19:09:42.050Z,1.40
2023-06-27T19:12:12.874Z,1.70
2023-06-27T19:14:40.963Z,1.42
2023-06-27T19:17:10.370Z,1.48
2023-06-27T19:19:38.775Z,1.10
2023-06-27T19:22:07.493Z,1.10
2023-06-27T19:24:35.590Z,1.90
2023-06-27T19:27:04.979Z,1.70
2023-06-27T19:29:33.111Z,1.85
2023-06-27T19:32:01.702Z,1.50
2023-06-27T19:34:31.113Z,1.45
2023-06-27T19:36:59.103Z,1.40
2023-06-27T19:39:27.702Z,1.52
2023-06-27T19:41:56.348Z,2.03
2023-06-27T19:44:24.475Z,1.40
2023-06-27T19:46:53.645Z,1.42
2023-06-27T19:49:21.634Z,1.60
2023-06-27T19:51:53.856Z,1.15
2023-06-27T19:54:21.894Z,1.33
2023-06-27T19:56:49.925Z,1.60
2023-06-27T19:59:20.809Z,1.60
2023-06-27T20:01:51.832Z,1.55
2023-06-27T20:04:21.068Z,1.50
2023-06-27T20:06:49.531Z,1.30
2023-06-27T20:09:21.655Z,1.40
2023-06-27T20:11:49.596Z,1.58
2023-06-27T20:14:17.608Z,1.30
2023-06-27T20:16:45.779Z,1.38
2023-06-27T20:19:13.743Z,1.40
2023-06-27T20:21:41.700Z,1.50
2023-06-27T20:24:10.477Z,1.45
2023-06-27T20:26:39.823Z,1.27
2023-06-27T20:29:08.120Z,1.20
2023-06-27T20:31:36.264Z,1.50
2023-06-27T20:34:04.361Z,1.77
2023-06-27T20:36:32.338Z,1.40
2023-06-27T20:39:00.276Z,1.40
2023-06-27T20:41:28.247Z,1.20
2023-06-27T20:43:58.572Z,1.30
2023-06-27T20:46:26.560Z,1.25
2023-06-27T20:48:54.583Z,1.20
2023-06-27T20:51:22.550Z,1.45
2023-06-27T20:53:50.502Z,1.63
2023-06-27T20:56:18.725Z,1.20
2023-06-27T20:58:46.688Z,1.40
2023-06-27T21:01:16.181Z,1.38
2023-06-27T21:03:44.459Z,1.45
2023-06-27T21:06:17.876Z,1.33
2023-06-27T21:08:46.960Z,1.40
2023-06-27T21:11:15.268Z,1.40
2023-06-27T21:13:44.373Z,1.23
2023-06-27T21:16:13.128Z,1.30
2023-06-27T21:18:42.816Z,1.42
2023-06-27T21:21:10.828Z,1.30
2023-06-27T21:23:41.754Z,1.33
2023-06-27T21:26:09.770Z,1.35
2023-06-27T21:28:37.892Z,1.05
2023-06-27T21:31:07.921Z,1.10
2023-06-27T21:33:35.978Z,1.33
2023-06-27T21:36:05.700Z,1.30
2023-06-27T21:38:33.662Z,1.40
2023-06-27T21:41:01.726Z,1.35
2023-06-27T21:43:29.723Z,1.27
2023-06-27T21:45:57.726Z,1.40
2023-06-27T21:48:25.727Z,1.42
2023-06-27T21:50:53.798Z,1.65
2023-06-27T21:53:23.240Z,1.40
2023-06-27T21:55:51.332Z,1.42
2023-06-27T21:58:22.099Z,1.40
2023-06-27T22:00:50.191Z,1.23
2023-06-27T22:03:19.977Z,1.30
2023-06-27T22:05:49.281Z,1.57
2023-06-27T22:08:17.528Z,1.10
2023-06-27T22:10:47.005Z,1.35
2023-06-27T22:13:15.004Z,1.13
2023-06-27T22:15:43.012Z,1.52
2023-06-27T22:18:11.361Z,1.58
2023-06-27T22:20:39.749Z,1.40
2023-06-27T22:23:07.994Z,1.08
2023-06-27T22:25:35.948Z,1.33
2023-06-27T22:28:05.778Z,1.27
2023-06-27T22:30:33.799Z,1.20
2023-06-27T22:33:01.869Z,1.63
2023-06-27T22:35:29.898Z,1.40
2023-06-27T22:37:58.032Z,1.60
2023-06-27T22:40:29.104Z,1.40
2023-06-27T22:42:57.161Z,1.60
2023-06-27T22:45:26.760Z,1.42
2023-06-27T22:47:54.730Z,1.63
2023-06-27T22:50:22.903Z,1.10
2023-06-27T22:52:50.903Z,1.50
2023-06-27T22:55:19.110Z,1.23
2023-06-27T22:57:50.427Z,1.50
2023-06-27T23:00:19.274Z,1.40
2023-06-27T23:02:48.761Z,1.23
2023-06-27T23:05:16.889Z,1.13
2023-06-27T23:07:45.467Z,1.38
2023-06-27T23:10:13.402Z,1.50
2023-06-27T23:12:41.381Z,1.40
2023-06-27T23:15:09.669Z,1.08
2023-06-27T23:17:37.716Z,1.30
2023-06-27T23:20:09.548Z,1.15
2023-06-27T23:22:38.113Z,1.52
2023-06-27T23:25:07.935Z,1.50
2023-06-27T23:27:36.633Z,1.33
2023-06-27T23:30:06.444Z,1.20
2023-06-27T23:32:34.410Z,1.30
2023-06-27T23:35:02.558Z,1.20
2023-06-27T23:37:32.294Z,1.23
2023-06-27T23:40:00.279Z,1.30
2023-06-27T23:42:28.308Z,1.50
2023-06-27T23:44:56.262Z,1.42
2023-06-27T23:47:24.268Z,1.55
2023-06-27T23:50:02.755Z,1.50
2023-06-27T23:52:32.143Z,2.08
2023-06-27T23:55:00.125Z,1.77
2023-06-27T23:57:28.079Z,1.30
2023-06-27T23:59:56.136Z,1.50
